createdAt,value
2019-03-20T00:02:02.377Z,4.75
2019-03-20T00:04:29.078Z,5.40
2019-03-20T00:06:55.770Z,6.62
2019-03-20T00:09:22.436Z,5.05
2019-03-20T00:11:49.124Z,4.83
2019-03-20T00:14:15.786Z,4.80
2019-03-20T00:16:42.867Z,13.62
2019-03-20T00:19:18.943Z,30.92
2019-03-20T00:21:45.638Z,5.37
2019-03-20T00:24:12.500Z,5.30
2019-03-20T00:26:39.207Z,6.83
2019-03-20T00:29:05.888Z,7.92
2019-03-20T00:31:32.555Z,5.55
2019-03-20T00:33:59.515Z,5.28
2019-03-20T00:36:26.374Z,5.58
2019-03-20T00:38:53.045Z,4.78
2019-03-20T00:41:19.943Z,4.87
2019-03-20T00:43:46.606Z,5.40
2019-03-20T00:46:14.869Z,4.42
2019-03-20T00:48:41.586Z,4.45
2019-03-20T00:51:09.353Z,5.00
2019-03-20T00:53:36.120Z,4.83
2019-03-20T00:56:03.214Z,4.40
2019-03-20T00:58:29.895Z,5.15
2019-03-20T01:00:56.682Z,4.55
2019-03-20T01:03:23.663Z,4.78
2019-03-20T01:05:50.340Z,5.62
2019-03-20T01:08:17.013Z,6.28
2019-03-20T01:10:43.721Z,5.17
2019-03-20T01:13:10.480Z,5.03
2019-03-20T01:15:37.196Z,4.87
2019-03-20T01:18:03.993Z,5.10
2019-03-20T01:20:30.674Z,4.80
2019-03-20T01:22:57.716Z,6.95
2019-03-20T01:25:24.837Z,8.03
2019-03-20T01:27:51.609Z,6.30
2019-03-20T01:30:34.711Z,4.78
2019-03-20T01:33:03.148Z,4.85
2019-03-20T01:35:30.124Z,4.33
2019-03-20T01:37:56.798Z,4.92
2019-03-20T01:40:23.557Z,4.92
2019-03-20T01:42:50.241Z,4.35
2019-03-20T01:45:17.079Z,4.20
2019-03-20T01:47:44.041Z,4.25
2019-03-20T01:50:10.683Z,4.03
2019-03-20T01:52:37.355Z,4.28
2019-03-20T01:55:04.170Z,4.35
2019-03-20T01:57:30.830Z,4.65
2019-03-20T01:59:57.506Z,4.20
2019-03-20T02:02:24.368Z,4.47
2019-03-20T02:04:51.307Z,4.05
2019-03-20T02:07:17.980Z,4.08
2019-03-20T02:09:44.889Z,3.83
2019-03-20T02:12:11.538Z,4.47
2019-03-20T02:14:38.211Z,3.33
2019-03-20T02:17:04.881Z,4.30
2019-03-20T02:19:31.822Z,4.78
2019-03-20T02:21:58.595Z,4.33
2019-03-20T02:24:43.181Z,5.53
2019-03-20T02:27:09.856Z,4.08
2019-03-20T02:29:36.641Z,4.45
2019-03-20T02:32:03.531Z,4.17
2019-03-20T02:34:30.438Z,3.65
2019-03-20T02:36:57.124Z,4.58
2019-03-20T02:39:23.814Z,6.33
2019-03-20T02:41:50.594Z,4.55
2019-03-20T02:44:17.266Z,3.90
2019-03-20T02:46:44.075Z,4.15
2019-03-20T02:49:10.757Z,4.85
2019-03-20T02:51:37.440Z,3.77
2019-03-20T02:54:04.241Z,4.08
2019-03-20T02:56:31.000Z,3.92
2019-03-20T02:58:57.681Z,3.75
2019-03-20T03:01:24.368Z,4.35
2019-03-20T03:03:51.033Z,3.92
2019-03-20T03:06:17.699Z,3.50
2019-03-20T03:08:44.399Z,4.22
2019-03-20T03:11:11.080Z,3.00
2019-03-20T03:13:37.730Z,3.85
2019-03-20T03:16:04.408Z,3.10
2019-03-20T03:18:31.175Z,4.15
2019-03-20T03:20:57.845Z,3.35
2019-03-20T03:23:25.471Z,3.42
2019-03-20T03:25:52.172Z,3.33
2019-03-20T03:28:18.841Z,4.17
2019-03-20T03:30:45.649Z,3.12
2019-03-20T03:33:12.404Z,3.35
2019-03-20T03:35:39.223Z,3.27
2019-03-20T03:38:06.000Z,3.65
2019-03-20T03:40:32.833Z,3.67
2019-03-20T03:42:59.746Z,3.30
2019-03-20T03:45:26.437Z,3.72
2019-03-20T03:47:56.496Z,3.30
2019-03-20T03:50:23.298Z,4.12
2019-03-20T03:52:49.988Z,4.50
2019-03-20T03:55:16.673Z,4.47
2019-03-20T03:57:43.409Z,4.28
2019-03-20T04:00:11.608Z,5.17
2019-03-20T04:02:38.299Z,4.97
2019-03-20T04:05:05.112Z,5.47
2019-03-20T04:07:31.958Z,5.62
2019-03-20T04:09:58.635Z,5.40
2019-03-20T04:12:25.474Z,6.20
2019-03-20T04:14:52.281Z,4.95
2019-03-20T04:17:20.833Z,6.55
2019-03-20T04:19:47.507Z,6.83
2019-03-20T04:22:14.229Z,6.92
2019-03-20T04:24:40.894Z,7.70
2019-03-20T04:27:07.762Z,8.35
2019-03-20T04:29:34.550Z,8.13
2019-03-20T04:32:01.266Z,8.70
2019-03-20T04:34:27.934Z,8.83
2019-03-20T04:36:54.719Z,9.30
2019-03-20T04:39:21.450Z,8.63
2019-03-20T04:41:48.086Z,10.28
2019-03-20T04:44:14.769Z,9.75
2019-03-20T04:46:41.653Z,8.85
2019-03-20T04:49:08.311Z,11.60
2019-03-20T04:51:35.090Z,12.58
2019-03-20T04:54:01.798Z,11.68
2019-03-20T04:56:28.465Z,12.65
2019-03-20T04:58:55.128Z,12.00
2019-03-20T05:01:21.811Z,12.15
2019-03-20T05:03:48.499Z,13.35
2019-03-20T05:06:15.261Z,12.03
2019-03-20T05:08:42.026Z,13.15
2019-03-20T05:11:09.047Z,12.63
2019-03-20T05:13:35.709Z,13.78
2019-03-20T05:16:02.477Z,14.50
2019-03-20T05:18:29.359Z,14.63
2019-03-20T05:20:56.045Z,14.68
2019-03-20T05:23:22.736Z,14.55
2019-03-20T05:25:49.753Z,13.30
2019-03-20T05:28:16.417Z,16.30
2019-03-20T05:30:43.195Z,15.28
2019-03-20T05:33:10.314Z,14.55
2019-03-20T05:35:37.009Z,17.10
2019-03-20T05:38:03.793Z,17.85
2019-03-20T05:40:30.503Z,16.57
2019-03-20T05:42:57.157Z,17.00
2019-03-20T05:45:23.930Z,16.50
2019-03-20T05:47:50.607Z,16.62
2019-03-20T05:50:17.555Z,18.60
2019-03-20T05:52:44.335Z,16.73
2019-03-20T05:55:11.317Z,16.15
2019-03-20T05:57:37.984Z,13.20
2019-03-20T06:00:07.102Z,15.85
2019-03-20T06:02:33.786Z,16.40
2019-03-20T06:05:00.468Z,17.82
2019-03-20T06:07:27.176Z,17.32
2019-03-20T06:09:53.843Z,17.35
2019-03-20T06:12:20.515Z,16.07
2019-03-20T06:14:47.220Z,13.10
2019-03-20T06:17:13.912Z,18.77
2019-03-20T06:19:40.683Z,15.70
2019-03-20T06:22:07.502Z,20.15
2019-03-20T06:24:34.264Z,18.90
2019-03-20T06:27:01.046Z,18.45
2019-03-20T06:29:28.662Z,17.92
2019-03-20T06:31:55.330Z,19.27
2019-03-20T06:34:22.006Z,17.87
2019-03-20T06:36:48.672Z,13.60
2019-03-20T06:39:15.396Z,19.42
2019-03-20T06:41:42.075Z,17.57
2019-03-20T06:44:08.754Z,19.90
2019-03-20T06:46:35.583Z,15.98
2019-03-20T06:49:02.266Z,17.52
2019-03-20T06:51:28.946Z,16.57
2019-03-20T06:53:55.743Z,12.45
2019-03-20T06:56:22.412Z,17.95
2019-03-20T06:59:11.940Z,17.37
2019-03-20T07:01:38.723Z,16.10
2019-03-20T07:04:13.146Z,14.55
2019-03-20T07:06:53.237Z,17.90
2019-03-20T07:09:24.739Z,11.78
2019-03-20T07:11:51.434Z,20.85
2019-03-20T07:14:18.259Z,16.40
2019-03-20T07:16:45.049Z,13.90
2019-03-20T07:19:11.820Z,14.38
2019-03-20T07:21:38.502Z,11.22
2019-03-20T07:24:05.333Z,13.17
2019-03-20T07:26:32.105Z,17.07
2019-03-20T07:28:58.744Z,12.68
2019-03-20T07:31:25.629Z,9.53
2019-03-20T07:33:52.718Z,14.28
2019-03-20T07:36:19.505Z,15.90
2019-03-20T07:38:46.334Z,14.47
2019-03-20T07:41:13.430Z,18.63
2019-03-20T07:43:40.101Z,15.23
2019-03-20T07:46:08.038Z,38.20
2019-03-20T07:48:34.782Z,23.03
2019-03-20T07:51:02.014Z,26.37
2019-03-20T07:53:29.083Z,12.67
2019-03-20T07:55:56.569Z,19.37
2019-03-20T07:58:23.367Z,28.50
2019-03-20T08:00:50.044Z,24.30
2019-03-20T08:03:16.815Z,18.87
2019-03-20T08:05:43.662Z,17.03
2019-03-20T08:08:10.330Z,29.80
2019-03-20T08:10:37.199Z,25.70
2019-03-20T08:13:04.214Z,15.40
2019-03-20T08:15:32.011Z,16.67
2019-03-20T08:17:58.709Z,20.47
2019-03-20T08:20:25.602Z,15.57
2019-03-20T08:22:52.291Z,16.63
2019-03-20T08:25:19.075Z,21.90
2019-03-20T08:27:45.743Z,15.70
2019-03-20T08:30:13.919Z,33.97
2019-03-20T08:32:40.987Z,17.93
2019-03-20T08:35:07.887Z,16.83
2019-03-20T08:37:34.653Z,26.30
2019-03-20T08:40:01.442Z,18.90
2019-03-20T08:42:28.198Z,10.70
2019-03-20T08:44:56.455Z,20.37
2019-03-20T08:47:23.233Z,18.87
2019-03-20T08:49:49.905Z,24.47
2019-03-20T08:52:16.610Z,11.57
2019-03-20T08:54:43.282Z,15.63
2019-03-20T08:57:09.959Z,15.70
2019-03-20T08:59:36.879Z,11.47
2019-03-20T09:02:03.659Z,15.40
2019-03-20T09:04:30.323Z,16.40
2019-03-20T09:06:57.025Z,19.07
2019-03-20T09:09:23.690Z,10.90
2019-03-20T09:11:50.381Z,20.63
2019-03-20T09:14:17.059Z,18.00
2019-03-20T09:16:43.896Z,17.90
2019-03-20T09:19:10.582Z,10.73
2019-03-20T09:21:37.253Z,14.20
2019-03-20T09:24:04.148Z,21.20
2019-03-20T09:26:30.832Z,13.17
2019-03-20T09:28:57.520Z,18.67
2019-03-20T09:31:25.259Z,12.27
2019-03-20T09:33:52.269Z,13.07
2019-03-20T09:36:19.124Z,17.40
2019-03-20T09:38:45.790Z,15.47
2019-03-20T09:41:12.694Z,11.63
2019-03-20T09:43:39.399Z,13.67
2019-03-20T09:46:06.083Z,13.30
2019-03-20T09:48:32.776Z,15.13
2019-03-20T09:50:59.434Z,16.57
2019-03-20T09:53:27.201Z,14.03
2019-03-20T09:55:54.032Z,14.40
2019-03-20T09:58:20.893Z,10.50
2019-03-20T10:00:47.642Z,12.27
2019-03-20T10:03:14.316Z,13.80
2019-03-20T10:05:41.082Z,21.73
2019-03-20T10:08:07.899Z,16.83
2019-03-20T10:10:34.666Z,15.00
2019-03-20T10:13:01.341Z,19.27
2019-03-20T10:15:28.131Z,13.07
2019-03-20T10:17:55.117Z,11.87
2019-03-20T10:20:22.219Z,16.13
2019-03-20T10:22:49.098Z,14.90
2019-03-20T10:25:15.968Z,17.10
2019-03-20T10:27:42.932Z,20.67
2019-03-20T10:30:12.981Z,14.33
2019-03-20T10:32:39.637Z,17.10
2019-03-20T10:35:07.313Z,18.17
2019-03-20T10:37:34.016Z,17.23
2019-03-20T10:40:00.727Z,21.17
2019-03-20T10:42:27.450Z,18.37
2019-03-20T10:44:54.113Z,13.53
2019-03-20T10:47:20.777Z,20.77
2019-03-20T10:49:48.783Z,18.87
2019-03-20T10:52:15.450Z,14.03
2019-03-20T10:54:42.219Z,13.57
2019-03-20T10:57:09.025Z,20.63
2019-03-20T10:59:36.814Z,18.17
2019-03-20T11:02:03.598Z,19.57
2019-03-20T11:04:31.380Z,15.40
2019-03-20T11:06:58.091Z,20.90
2019-03-20T11:09:24.797Z,20.53
2019-03-20T11:11:51.455Z,24.03
2019-03-20T11:14:18.164Z,19.70
2019-03-20T11:16:45.069Z,23.17
2019-03-20T11:19:11.730Z,18.10
2019-03-20T11:21:38.404Z,16.07
2019-03-20T11:24:05.197Z,18.93
2019-03-20T11:26:31.914Z,14.70
2019-03-20T11:28:58.641Z,21.90
2019-03-20T11:31:25.344Z,24.57
2019-03-20T11:33:52.027Z,21.70
2019-03-20T11:36:18.829Z,25.53
2019-03-20T11:38:45.605Z,23.50
2019-03-20T11:41:12.434Z,16.07
2019-03-20T11:43:39.089Z,21.43
2019-03-20T11:46:06.978Z,25.83
2019-03-20T11:48:33.671Z,24.53
2019-03-20T11:51:01.353Z,13.63
2019-03-20T11:53:28.127Z,23.53
2019-03-20T11:55:54.869Z,15.20
2019-03-20T11:58:21.638Z,19.70
2019-03-20T12:00:48.420Z,25.33
2019-03-20T12:03:16.402Z,19.23
2019-03-20T12:05:43.065Z,26.40
2019-03-20T12:08:11.639Z,20.40
2019-03-20T12:10:38.342Z,16.47
2019-03-20T12:13:05.122Z,23.87
2019-03-20T12:15:31.874Z,15.80
2019-03-20T12:17:58.888Z,18.87
2019-03-20T12:20:25.851Z,16.17
2019-03-20T12:22:52.820Z,21.10
2019-03-20T12:25:22.045Z,21.67
2019-03-20T12:27:48.805Z,19.60
2019-03-20T12:30:17.901Z,18.20
2019-03-20T12:32:44.590Z,19.87
2019-03-20T12:35:12.083Z,14.37
2019-03-20T12:37:38.783Z,23.23
2019-03-20T12:40:09.145Z,26.50
2019-03-20T12:42:35.827Z,18.57
2019-03-20T12:45:04.246Z,22.90
2019-03-20T12:47:31.023Z,14.87
2019-03-20T12:49:57.709Z,19.13
2019-03-20T12:52:24.519Z,30.20
2019-03-20T12:54:51.193Z,24.00
2019-03-20T12:57:18.095Z,14.77
2019-03-20T12:59:44.778Z,23.17
2019-03-20T13:02:11.748Z,21.50
2019-03-20T13:04:38.441Z,16.87
2019-03-20T13:07:05.152Z,23.67
2019-03-20T13:09:31.827Z,21.10
2019-03-20T13:11:58.601Z,26.07
2019-03-20T13:14:25.300Z,22.57
2019-03-20T13:16:52.117Z,28.40
2019-03-20T13:19:18.864Z,28.77
2019-03-20T13:21:47.606Z,32.70
2019-03-20T13:24:14.146Z,21.60
2019-03-20T13:26:40.929Z,21.30
2019-03-20T13:29:08.702Z,23.13
2019-03-20T13:31:35.393Z,18.60
2019-03-20T13:34:02.079Z,22.93
2019-03-20T13:36:28.746Z,19.83
2019-03-20T13:38:56.563Z,26.33
2019-03-20T13:41:23.444Z,20.13
2019-03-20T13:43:50.258Z,27.60
2019-03-20T13:46:16.954Z,19.83
2019-03-20T13:48:43.733Z,19.33
2019-03-20T13:51:10.552Z,20.63
2019-03-20T13:53:37.359Z,24.93
2019-03-20T13:56:04.119Z,22.67
2019-03-20T13:58:30.798Z,26.00
2019-03-20T14:00:57.502Z,24.73
2019-03-20T14:03:24.178Z,22.83
2019-03-20T14:06:06.555Z,17.60
2019-03-20T14:08:33.227Z,24.97
2019-03-20T14:11:00.127Z,27.13
2019-03-20T14:13:26.890Z,23.37
2019-03-20T14:15:53.679Z,29.43
2019-03-20T14:18:20.370Z,34.00
2019-03-20T14:20:47.034Z,23.47
2019-03-20T14:23:13.837Z,20.53
2019-03-20T14:25:40.518Z,29.43
2019-03-20T14:28:07.435Z,26.23
2019-03-20T14:30:34.309Z,18.33
2019-03-20T14:33:01.081Z,23.23
2019-03-20T14:35:28.749Z,22.87
2019-03-20T14:37:55.642Z,21.80
2019-03-20T14:40:34.861Z,23.73
2019-03-20T14:42:53.283Z,26.93
2019-03-20T14:45:20.113Z,27.13
2019-03-20T14:47:47.031Z,27.27
2019-03-20T14:50:15.233Z,20.43
2019-03-20T14:52:42.161Z,34.73
2019-03-20T14:55:10.074Z,34.80
2019-03-20T14:57:36.859Z,32.67
2019-03-20T15:00:04.777Z,32.27
2019-03-20T15:02:31.770Z,29.10
2019-03-20T15:04:58.498Z,36.60
2019-03-20T15:07:25.201Z,29.57
2019-03-20T15:09:51.971Z,32.77
2019-03-20T15:12:18.651Z,35.60
2019-03-20T15:14:45.462Z,38.00
2019-03-20T15:17:12.140Z,26.10
2019-03-20T15:19:39.149Z,24.80
2019-03-20T15:22:05.822Z,18.73
2019-03-20T15:24:32.500Z,37.47
2019-03-20T15:26:59.286Z,28.20
2019-03-20T15:29:25.976Z,25.80
2019-03-20T15:31:52.914Z,22.40
2019-03-20T15:34:19.950Z,31.50
2019-03-20T15:36:47.161Z,37.00
2019-03-20T15:39:13.880Z,27.00
2019-03-20T15:41:40.557Z,38.97
2019-03-20T15:44:07.242Z,23.93
2019-03-20T15:46:34.610Z,26.00
2019-03-20T15:49:01.289Z,19.53
2019-03-20T15:51:28.043Z,25.80
2019-03-20T15:53:54.815Z,22.03
2019-03-20T15:56:21.831Z,26.43
2019-03-20T15:58:49.244Z,26.87
2019-03-20T16:01:15.968Z,31.80
2019-03-20T16:03:42.676Z,34.07
2019-03-20T16:06:09.439Z,29.30
2019-03-20T16:08:36.231Z,35.30
2019-03-20T16:11:06.860Z,26.37
2019-03-20T16:13:31.613Z,34.73
2019-03-20T16:15:59.863Z,28.43
2019-03-20T16:18:26.521Z,23.50
2019-03-20T16:20:53.331Z,34.20
2019-03-20T16:23:20.005Z,33.07
2019-03-20T16:25:46.791Z,30.37
2019-03-20T16:28:13.460Z,24.90
2019-03-20T16:30:40.146Z,31.27
2019-03-20T16:33:06.910Z,38.10
2019-03-20T16:35:33.711Z,32.40
2019-03-20T16:38:00.489Z,40.27
2019-03-20T16:40:27.441Z,30.43
2019-03-20T16:42:54.515Z,37.50
2019-03-20T16:45:23.481Z,40.50
2019-03-20T16:47:50.278Z,39.70
2019-03-20T16:50:17.265Z,37.83
2019-03-20T16:52:44.169Z,37.43
2019-03-20T16:55:11.458Z,35.37
2019-03-20T16:57:38.366Z,32.43
2019-03-20T17:00:06.542Z,36.67
2019-03-20T17:02:33.423Z,49.70
2019-03-20T17:05:00.099Z,51.17
2019-03-20T17:07:26.778Z,46.73
2019-03-20T17:09:53.578Z,35.67
2019-03-20T17:12:20.351Z,40.30
2019-03-20T17:14:47.023Z,31.77
2019-03-20T17:17:13.822Z,44.53
2019-03-20T17:19:40.522Z,48.97
2019-03-20T17:22:07.998Z,38.30
2019-03-20T17:24:34.937Z,40.60
2019-03-20T17:27:01.709Z,33.43
2019-03-20T17:29:28.385Z,32.10
2019-03-20T17:31:55.052Z,50.20
2019-03-20T17:34:21.744Z,51.77
2019-03-20T17:36:48.406Z,51.40
2019-03-20T17:39:15.087Z,49.10
2019-03-20T17:41:41.897Z,49.10
2019-03-20T17:44:08.560Z,51.50
2019-03-20T17:46:35.358Z,47.17
2019-03-20T17:49:02.262Z,49.70
2019-03-20T17:51:29.747Z,46.60
2019-03-20T17:53:56.434Z,29.63
2019-03-20T17:56:23.123Z,36.97
2019-03-20T17:58:49.920Z,34.83
2019-03-20T18:01:16.613Z,44.53
2019-03-20T18:03:43.306Z,49.30
2019-03-20T18:06:10.002Z,46.60
2019-03-20T18:08:36.674Z,26.77
2019-03-20T18:11:03.462Z,35.47
2019-03-20T18:13:30.173Z,35.20
2019-03-20T18:15:56.942Z,47.67
2019-03-20T18:18:23.610Z,47.07
2019-03-20T18:20:50.401Z,49.53
2019-03-20T18:23:17.217Z,45.20
2019-03-20T18:25:44.071Z,30.97
2019-03-20T18:28:10.767Z,45.10
2019-03-20T18:30:38.679Z,39.20
2019-03-20T18:33:05.552Z,45.90
2019-03-20T18:35:32.383Z,44.70
2019-03-20T18:37:59.214Z,43.27
2019-03-20T18:40:26.460Z,44.50
2019-03-20T18:42:53.260Z,44.07
2019-03-20T18:45:20.098Z,37.70
2019-03-20T18:47:46.874Z,25.23
2019-03-20T18:50:14.614Z,33.27
2019-03-20T18:52:41.420Z,46.10
2019-03-20T18:55:08.991Z,41.73
2019-03-20T18:57:35.887Z,39.70
2019-03-20T19:00:03.861Z,40.03
2019-03-20T19:02:31.802Z,21.63
2019-03-20T19:04:58.492Z,38.30
2019-03-20T19:07:25.199Z,42.27
2019-03-20T19:09:52.014Z,37.50
2019-03-20T19:12:18.699Z,40.97
2019-03-20T19:14:45.376Z,31.50
2019-03-20T19:17:12.151Z,46.60
2019-03-20T19:19:39.078Z,45.93
2019-03-20T19:22:05.939Z,31.40
2019-03-20T19:24:32.622Z,34.33
2019-03-20T19:26:59.875Z,39.40
2019-03-20T19:29:26.534Z,38.87
2019-03-20T19:31:55.672Z,42.50
2019-03-20T19:34:23.132Z,43.13
2019-03-20T19:36:49.891Z,36.80
2019-03-20T19:39:16.796Z,45.57
2019-03-20T19:45:30.601Z,37.20
2019-03-20T19:47:57.812Z,42.27
2019-03-20T19:50:25.570Z,42.77
2019-03-20T19:52:52.245Z,42.83
2019-03-20T19:55:19.374Z,42.30
2019-03-20T19:57:46.168Z,39.43
2019-03-20T20:00:13.825Z,41.17
2019-03-20T20:02:40.707Z,46.43
2019-03-20T20:05:15.781Z,42.60
2019-03-20T20:07:36.550Z,46.53
2019-03-20T20:10:04.330Z,44.27
2019-03-20T20:12:31.727Z,46.07
2019-03-20T20:14:58.402Z,44.63
2019-03-20T20:17:25.185Z,47.53
2019-03-20T20:19:51.901Z,43.57
2019-03-20T20:22:18.697Z,40.73
2019-03-20T20:24:45.395Z,47.23
2019-03-20T20:27:12.545Z,46.83
2019-03-20T20:29:39.289Z,44.80
2019-03-20T20:32:06.337Z,46.17
2019-03-20T20:34:33.300Z,47.27
2019-03-20T20:37:00.089Z,41.53
2019-03-20T20:39:26.788Z,42.37
2019-03-20T20:41:53.935Z,43.17
2019-03-20T20:44:20.639Z,43.00
2019-03-20T20:46:47.319Z,39.47
2019-03-20T20:49:13.986Z,45.70
2019-03-20T20:51:40.757Z,41.70
2019-03-20T20:54:08.311Z,44.20
2019-03-20T20:56:34.997Z,45.30
2019-03-20T20:59:01.778Z,47.10
2019-03-20T21:01:30.204Z,133.97
2019-03-20T21:03:57.939Z,43.57
2019-03-20T21:06:24.627Z,43.20
2019-03-20T21:08:51.329Z,43.60
2019-03-20T21:11:17.995Z,43.97
2019-03-20T21:13:44.668Z,53.77
2019-03-20T21:16:11.876Z,43.37
2019-03-20T21:19:19.521Z,43.70
2019-03-20T21:22:33.025Z,39.40
2019-03-20T21:25:00.485Z,33.93
2019-03-20T21:27:55.082Z,37.83
2019-03-20T21:30:54.134Z,38.77
2019-03-20T21:34:08.313Z,37.73
2019-03-20T21:37:24.721Z,34.63
2019-03-20T21:39:52.251Z,41.10
2019-03-20T21:43:06.496Z,37.93
2019-03-20T21:46:00.347Z,39.07
2019-03-20T21:48:27.577Z,39.73
2019-03-20T21:51:24.940Z,38.63
2019-03-20T21:54:33.518Z,33.57
2019-03-20T21:57:47.094Z,36.10
2019-03-20T22:00:43.269Z,39.23
2019-03-20T22:03:10.574Z,38.47
2019-03-20T22:06:18.826Z,36.33
2019-03-20T22:08:46.779Z,41.40
2019-03-20T22:11:57.319Z,36.40
2019-03-20T22:14:24.651Z,37.70
2019-03-20T22:17:50.686Z,38.03
2019-03-20T22:20:25.175Z,35.90
2019-03-20T22:23:22.591Z,43.77
2019-03-20T22:26:49.321Z,40.70
2019-03-20T22:29:24.078Z,40.10
2019-03-20T22:32:47.833Z,41.23
2019-03-20T22:35:50.626Z,37.87
2019-03-20T22:38:41.107Z,40.53
2019-03-20T22:41:45.983Z,34.67
2019-03-20T22:44:15.161Z,35.00
2019-03-20T22:47:32.292Z,40.13
2019-03-20T22:50:11.310Z,35.33
2019-03-20T22:53:21.376Z,35.40
2019-03-20T22:56:24.247Z,43.07
2019-03-20T22:58:51.443Z,37.10
2019-03-20T23:01:29.966Z,26.00
2019-03-20T23:04:05.197Z,31.27
2019-03-20T23:06:32.618Z,33.13
2019-03-20T23:08:59.829Z,38.40
2019-03-20T23:11:27.042Z,31.93
2019-03-20T23:13:54.336Z,30.73
2019-03-20T23:16:21.930Z,43.77
2019-03-20T23:18:50.247Z,37.20
2019-03-20T23:21:17.677Z,42.63
2019-03-20T23:23:44.898Z,40.30
2019-03-20T23:26:12.984Z,40.00
2019-03-20T23:28:40.777Z,35.70
2019-03-20T23:31:07.986Z,47.80
2019-03-20T23:33:35.657Z,37.77
2019-03-20T23:36:02.978Z,35.33
2019-03-20T23:38:30.303Z,42.40
2019-03-20T23:40:57.601Z,27.30
2019-03-20T23:43:25.002Z,44.53
2019-03-20T23:45:52.194Z,47.57
2019-03-20T23:48:43.888Z,41.27
2019-03-20T23:51:15.023Z,45.17
2019-03-20T23:53:45.781Z,41.07
2019-03-20T23:56:13.252Z,43.17
2019-03-20T23:58:40.553Z,45.23
